Antonios — SY8410 — position and weather

sailwx.info

Track history (hours):
 
Tides and Currents Weather Stations Pressure Air Temp Water Temp Dewpoint Dewpoint Depression Visibility Wind Speed Wind Dir Waves Ship Positions

Antonios

Last reported at 2017-Jun-09 11:59 UTC. Time now 2017-Jun-27 22:36 UTC.
Position N 37°07' E 025°44'.
Warning: this ship's position is 18 days out of date.

Length 57 m; draft 4 m.

Type: Tanker. MMSI: 239191300.

Date/timePositionNaut miles runAvg speedWind from/ knotsBaromVisibWave heightAir tempDewpointWater temp
2017-Jun-09 11:59N 37°07' E 025°44'5 9.7
2017-Jun-09 11:30N 37°10' E 025°40'5 9.8
2017-Jun-09 10:58N 37°13' E 025°34'4 9.6
2017-Jun-09 10:31N 37°14' E 025°29'5 9.5
2017-Jun-09 10:00N 37°15' E 025°23'5 9.4
2017-Jun-09 09:30N 37°16' E 025°17'5 9.2
2017-Jun-09 09:00N 37°18' E 025°12'6 9.0
2017-Jun-09 08:18N 37°19' E 025°04'3 9.0
2017-Jun-09 08:00N 37°20' E 025°01'5 9.1
2017-Jun-09 07:30N 37°21' E 024°55'5 9.3
2017-Jun-09 07:00N 37°22' E 024°50'5 9.5
2017-Jun-09 06:30N 37°24' E 024°44'47 9.6
2017-Jun-09 01:35N 37°37' E 023°47'1 9.7
2017-Jun-09 01:30N 37°37' E 023°46'5 9.8
2017-Jun-09 01:01N 37°41' E 023°42'510.1
2017-Jun-09 00:31N 37°46' E 023°39'5 9.3
2017-Jun-09 00:01N 37°49' E 023°34'510.0
2017-Jun-08 23:30N 37°50' E 023°28'5 9.6
2017-Jun-08 23:00N 37°51' E 023°22'5 9.9
2017-Jun-08 22:29N 37°53' E 023°16'510.1
2017-Jun-08 22:00N 37°54' E 023°10'4 0.5
2017-Jun-08 13:21N 37°55' E 023°05'1 2.6
2017-Jun-08 12:58N 37°55' E 023°04'0 0.0
2017-Jun-08 12:20N 37°55' E 023°04'0 0.0
2017-Jun-08 11:55N 37°55' E 023°04'1 3.0
2017-Jun-08 11:29N 37°54' E 023°06'510.9
2017-Jun-08 11:00N 37°53' E 023°12'510.8
2017-Jun-08 10:30N 37°52' E 023°19'510.8
2017-Jun-08 10:01N 37°51' E 023°25'510.7
2017-Jun-08 09:30N 37°50' E 023°32'510.3
2017-Jun-08 09:01N 37°50' E 023°39'510.3
2017-Jun-08 08:30N 37°46' E 023°42'5 9.8
2017-Jun-08 08:01N 37°41' E 023°44'5 9.7
2017-Jun-08 07:30N 37°39' E 023°50'910.0
2017-Jun-08 06:37N 37°36' E 024°00'11 9.9
2017-Jun-08 05:30N 37°31' E 024°13'26 9.8
2017-Jun-08 02:53N 37°24' E 024°44'410.0
2017-Jun-08 02:31N 37°22' E 024°48'510.8
2017-Jun-08 02:01N 37°20' E 024°55'510.6
2017-Jun-08 01:31N 37°19' E 025°01'510.4
2017-Jun-08 01:01N 37°18' E 025°08'510.6
2017-Jun-08 00:31N 37°17' E 025°14'510.5
2017-Jun-08 00:01N 37°16' E 025°21'510.3
2017-Jun-07 23:31N 37°14' E 025°27'610.4
2017-Jun-07 22:58N 37°13' E 025°34'510.4
2017-Jun-07 22:31N 37°12' E 025°40'510.3
2017-Jun-07 22:00N 37°11' E 025°46'  
Track history (hours):
 
Tides and Currents Weather Stations Pressure Air Temp Water Temp Dewpoint Dewpoint Depression Visibility Wind Speed Wind Dir Waves Ship Positions

Antonios

Last reported at 2017-Jun-09 11:59 UTC. Time now 2017-Jun-27 22:36 UTC.
Position N 37°07' E 025°44'.
Warning: this ship's position is 18 days out of date.

Length 57 m; draft 4 m.

Type: Tanker. MMSI: 239191300.

Date/timePositionNaut miles runAvg speedWind from/ knotsBaromVisibWave heightAir tempDewpointWater temp
2017-Jun-09 11:59N 37°07' E 025°44'5 9.7
2017-Jun-09 11:30N 37°10' E 025°40'5 9.8
2017-Jun-09 10:58N 37°13' E 025°34'4 9.6
2017-Jun-09 10:31N 37°14' E 025°29'5 9.5
2017-Jun-09 10:00N 37°15' E 025°23'5 9.4
2017-Jun-09 09:30N 37°16' E 025°17'5 9.2
2017-Jun-09 09:00N 37°18' E 025°12'6 9.0
2017-Jun-09 08:18N 37°19' E 025°04'3 9.0
2017-Jun-09 08:00N 37°20' E 025°01'5 9.1
2017-Jun-09 07:30N 37°21' E 024°55'5 9.3
2017-Jun-09 07:00N 37°22' E 024°50'5 9.5
2017-Jun-09 06:30N 37°24' E 024°44'47 9.6
2017-Jun-09 01:35N 37°37' E 023°47'1 9.7
2017-Jun-09 01:30N 37°37' E 023°46'5 9.8
2017-Jun-09 01:01N 37°41' E 023°42'510.1
2017-Jun-09 00:31N 37°46' E 023°39'5 9.3
2017-Jun-09 00:01N 37°49' E 023°34'510.0
2017-Jun-08 23:30N 37°50' E 023°28'5 9.6
2017-Jun-08 23:00N 37°51' E 023°22'5 9.9
2017-Jun-08 22:29N 37°53' E 023°16'510.1
2017-Jun-08 22:00N 37°54' E 023°10'4 0.5
2017-Jun-08 13:21N 37°55' E 023°05'1 2.6
2017-Jun-08 12:58N 37°55' E 023°04'0 0.0
2017-Jun-08 12:20N 37°55' E 023°04'0 0.0
2017-Jun-08 11:55N 37°55' E 023°04'1 3.0
2017-Jun-08 11:29N 37°54' E 023°06'510.9
2017-Jun-08 11:00N 37°53' E 023°12'510.8
2017-Jun-08 10:30N 37°52' E 023°19'510.8
2017-Jun-08 10:01N 37°51' E 023°25'510.7
2017-Jun-08 09:30N 37°50' E 023°32'510.3
2017-Jun-08 09:01N 37°50' E 023°39'510.3
2017-Jun-08 08:30N 37°46' E 023°42'5 9.8
2017-Jun-08 08:01N 37°41' E 023°44'5 9.7
2017-Jun-08 07:30N 37°39' E 023°50'910.0
2017-Jun-08 06:37N 37°36' E 024°00'11 9.9
2017-Jun-08 05:30N 37°31' E 024°13'26 9.8
2017-Jun-08 02:53N 37°24' E 024°44'410.0
2017-Jun-08 02:31N 37°22' E 024°48'510.8
2017-Jun-08 02:01N 37°20' E 024°55'510.6
2017-Jun-08 01:31N 37°19' E 025°01'510.4
2017-Jun-08 01:01N 37°18' E 025°08'510.6
2017-Jun-08 00:31N 37°17' E 025°14'510.5
2017-Jun-08 00:01N 37°16' E 025°21'510.3
2017-Jun-07 23:31N 37°14' E 025°27'610.4
2017-Jun-07 22:58N 37°13' E 025°34'510.4
2017-Jun-07 22:31N 37°12' E 025°40'510.3
2017-Jun-07 22:00N 37°11' E 025°46'  

Dump ship's entire track history